createdAt,value
2023-04-17T00:01:17.453Z,100683.16
2023-04-17T00:03:44.670Z,100689.47
2023-04-17T00:06:13.975Z,100688.69
2023-04-17T00:08:40.656Z,100698.50
2023-04-17T00:11:08.858Z,100694.16
2023-04-17T00:13:36.306Z,100686.28
2023-04-17T00:16:03.145Z,100689.78
2023-04-17T00:18:29.682Z,100692.53
2023-04-17T00:20:56.559Z,100688.06
2023-04-17T00:23:23.020Z,100688.94
2023-04-17T00:25:49.453Z,100691.66
2023-04-17T00:28:15.951Z,100690.78
2023-04-17T00:30:42.287Z,100682.03
2023-04-17T00:33:08.662Z,100688.22
2023-04-17T00:35:35.028Z,100684.81
2023-04-17T00:38:01.437Z,100678.00
2023-04-17T00:40:27.856Z,100679.88
2023-04-17T00:42:59.856Z,100687.25
2023-04-17T00:45:26.362Z,100681.09
2023-04-17T00:47:53.633Z,100683.91
2023-04-17T00:50:20.048Z,100685.91
2023-04-17T00:52:47.373Z,100678.22
2023-04-17T00:55:14.986Z,100686.25
2023-04-17T00:57:42.415Z,100681.13
2023-04-17T01:00:10.222Z,100681.19
2023-04-17T01:02:37.862Z,100679.56
2023-04-17T01:05:04.831Z,100690.25
2023-04-17T01:07:31.433Z,100682.41
2023-04-17T01:09:58.993Z,100688.69
2023-04-17T01:12:25.807Z,100691.41
2023-04-17T01:14:53.587Z,100687.06
2023-04-17T01:17:20.430Z,100683.75
2023-04-17T01:19:47.656Z,100687.31
2023-04-17T01:22:16.336Z,100690.03
2023-04-17T01:24:42.932Z,100683.13
2023-04-17T01:27:09.387Z,100683.19
2023-04-17T01:29:35.863Z,100686.78
2023-04-17T01:32:02.308Z,100686.03
2023-04-17T01:34:28.846Z,100684.34
2023-04-17T01:36:55.329Z,100680.00
2023-04-17T01:39:21.732Z,100685.41
2023-04-17T01:41:48.262Z,100681.91
2023-04-17T01:44:14.771Z,100681.16
2023-04-17T01:46:41.287Z,100682.16
2023-04-17T01:49:07.854Z,100678.66
2023-04-17T01:51:34.298Z,100687.50
2023-04-17T01:54:00.741Z,100678.72
2023-04-17T01:56:27.195Z,100672.69
2023-04-17T01:58:54.219Z,100686.81
2023-04-17T02:01:20.718Z,100681.53
2023-04-17T02:03:47.299Z,100692.22
2023-04-17T02:06:15.238Z,100681.72
2023-04-17T02:08:41.924Z,100688.75
2023-04-17T02:11:09.985Z,100688.94
2023-04-17T02:13:36.504Z,100688.88
2023-04-17T02:16:03.016Z,100688.06
2023-04-17T02:18:29.512Z,100689.00
2023-04-17T02:20:55.912Z,100687.31
2023-04-17T02:23:22.358Z,100686.50
2023-04-17T02:25:48.732Z,100691.84
2023-04-17T02:28:15.614Z,100701.56
2023-04-17T02:30:42.078Z,100694.47
2023-04-17T02:33:08.826Z,100699.84
2023-04-17T02:35:35.346Z,100701.63
2023-04-17T02:38:01.954Z,100702.47
2023-04-17T02:40:28.309Z,100699.94
2023-04-17T02:42:54.629Z,100703.47
2023-04-17T02:45:21.056Z,100709.69
2023-04-17T02:47:48.762Z,100707.19
2023-04-17T02:50:15.425Z,100710.69
2023-04-17T02:52:41.801Z,100709.81
2023-04-17T02:55:09.558Z,100709.06
2023-04-17T02:57:36.005Z,100711.75
2023-04-17T03:00:05.070Z,100710.06
2023-04-17T03:02:32.004Z,100702.22
2023-04-17T03:05:02.012Z,100706.69
2023-04-17T03:07:28.516Z,100708.56
2023-04-17T03:09:57.417Z,100713.06
2023-04-17T03:12:23.813Z,100705.22
2023-04-17T03:14:50.905Z,100707.91
2023-04-17T03:17:18.254Z,100709.75
2023-04-17T03:19:44.709Z,100712.41
2023-04-17T03:22:13.303Z,100712.47
2023-04-17T03:24:41.175Z,100719.59
2023-04-17T03:27:07.616Z,100726.66
2023-04-17T03:29:34.047Z,100722.25
2023-04-17T03:32:00.558Z,100719.66
2023-04-17T03:34:28.227Z,100724.94
2023-04-17T03:36:54.687Z,100724.16
2023-04-17T03:39:21.352Z,100721.53
2023-04-17T03:41:47.737Z,100727.81
2023-04-17T03:44:14.167Z,100724.38
2023-04-17T03:46:40.567Z,100724.38
2023-04-17T03:49:06.891Z,100727.94
2023-04-17T03:51:33.225Z,100729.72
2023-04-17T03:53:59.771Z,100721.88
2023-04-17T03:56:26.121Z,100733.34
2023-04-17T03:58:52.534Z,100733.41
2023-04-17T04:01:19.246Z,100732.63
2023-04-17T04:03:45.861Z,100733.69
2023-04-17T04:06:12.436Z,100732.00
2023-04-17T04:08:38.833Z,100727.72
2023-04-17T04:11:05.404Z,100735.69
2023-04-17T04:13:31.745Z,100732.25
2023-04-17T04:15:58.172Z,100740.28
2023-04-17T04:18:24.555Z,100736.88
2023-04-17T04:20:50.980Z,100736.09
2023-04-17T04:23:17.326Z,100736.16
2023-04-17T04:25:43.711Z,100738.94
2023-04-17T04:28:10.453Z,100740.69
2023-04-17T04:30:38.623Z,100743.41
2023-04-17T04:33:05.693Z,100750.47
2023-04-17T04:38:29.918Z,100757.44
2023-04-17T04:41:06.105Z,100752.28
2023-04-17T04:43:33.643Z,100750.53
2023-04-17T04:46:00.446Z,100753.22
2023-04-17T04:48:27.551Z,100756.78
2023-04-17T04:50:54.575Z,100757.72
2023-04-17T04:53:21.215Z,100766.53
2023-04-17T04:55:47.662Z,100764.81
2023-04-17T04:58:14.280Z,100774.53
2023-04-17T05:00:40.841Z,100772.78
2023-04-17T05:03:07.898Z,100771.94
2023-04-17T05:05:35.898Z,100774.59
2023-04-17T05:08:02.878Z,100782.50
2023-04-17T05:10:29.387Z,100778.94
2023-04-17T05:12:56.164Z,100785.06
2023-04-17T05:15:22.730Z,100785.06
2023-04-17T05:17:49.418Z,100785.91
2023-04-17T05:20:16.253Z,100788.47
2023-04-17T05:22:42.844Z,100786.72
2023-04-17T05:25:09.566Z,100789.28
2023-04-17T05:27:36.249Z,100789.19
2023-04-17T05:30:02.992Z,100798.84
2023-04-17T05:32:31.309Z,100792.56
2023-04-17T05:34:57.950Z,100804.81
2023-04-17T05:37:24.474Z,100797.78
2023-04-17T05:39:50.976Z,100802.06
2023-04-17T05:42:17.807Z,100797.56
2023-04-17T05:44:44.331Z,100804.53
2023-04-17T05:47:10.683Z,100801.84
2023-04-17T05:49:37.108Z,100802.66
2023-04-17T05:52:03.848Z,100808.75
2023-04-17T05:54:30.387Z,100814.84
2023-04-17T05:56:57.183Z,100814.78
2023-04-17T05:59:23.731Z,100811.22
2023-04-17T06:01:51.086Z,100815.50
2023-04-17T06:04:18.674Z,100818.06
2023-04-17T06:06:47.860Z,100816.19
2023-04-17T06:09:14.705Z,100824.06
2023-04-17T06:11:41.479Z,100825.69
2023-04-17T06:14:08.087Z,100823.84
2023-04-17T06:16:34.613Z,100829.06
2023-04-17T06:19:01.165Z,100828.13
2023-04-17T06:21:27.898Z,100831.56
2023-04-17T06:23:54.466Z,100835.84
2023-04-17T06:26:21.418Z,100833.06
2023-04-17T06:28:48.069Z,100833.78
2023-04-17T06:31:14.755Z,100838.09
2023-04-17T06:33:41.386Z,100839.66
2023-04-17T06:36:08.062Z,100838.66
2023-04-17T06:38:34.659Z,100838.44
2023-04-17T06:41:01.197Z,100845.38
2023-04-17T06:43:27.666Z,100846.00
2023-04-17T06:45:54.287Z,100839.66
2023-04-17T06:48:21.055Z,100843.88
2023-04-17T06:50:47.691Z,100847.19
2023-04-17T06:53:20.104Z,100848.88
2023-04-17T06:55:46.543Z,100846.72
2023-04-17T06:58:13.430Z,100850.94
2023-04-17T07:00:39.923Z,100850.72
2023-04-17T07:03:06.748Z,100852.28
2023-04-17T07:05:33.366Z,100857.38
2023-04-17T07:07:59.858Z,100856.28
2023-04-17T07:10:26.369Z,100857.88
2023-04-17T07:12:52.936Z,100865.56
2023-04-17T07:15:19.599Z,100875.13
2023-04-17T07:17:46.373Z,100871.41
2023-04-17T07:20:12.983Z,100872.19
2023-04-17T07:22:39.978Z,100873.78
2023-04-17T07:25:07.432Z,100881.53
2023-04-17T07:27:34.088Z,100876.03
2023-04-17T07:30:00.614Z,100883.72
2023-04-17T07:32:28.101Z,100884.38
2023-04-17T07:34:57.716Z,100891.06
2023-04-17T07:37:24.314Z,100891.69
2023-04-17T07:39:50.981Z,100889.63
2023-04-17T07:42:17.584Z,100883.16
2023-04-17T07:44:44.274Z,100890.81
2023-04-17T07:47:11.103Z,100890.50
2023-04-17T07:49:39.693Z,100886.69
2023-04-17T07:52:06.349Z,100892.53
2023-04-17T07:54:33.120Z,100893.22
2023-04-17T07:57:03.454Z,100894.72
2023-04-17T07:59:30.708Z,100895.34
2023-04-17T08:01:57.711Z,100895.84
2023-04-17T08:04:26.097Z,100899.00
2023-04-17T08:06:52.876Z,100903.00
2023-04-17T08:09:21.221Z,100898.31
2023-04-17T08:11:56.874Z,100903.13
2023-04-17T08:14:24.440Z,100900.19
2023-04-17T08:16:51.581Z,100898.13
2023-04-17T08:19:18.141Z,100898.75
2023-04-17T08:21:50.158Z,100906.44
2023-04-17T08:24:19.791Z,100906.97
2023-04-17T08:26:47.330Z,100904.84
2023-04-17T08:29:14.234Z,100917.84
2023-04-17T08:31:41.265Z,100905.19
2023-04-17T08:34:14.273Z,100916.41
2023-04-17T08:36:42.699Z,100907.25
2023-04-17T08:39:14.786Z,100918.41
2023-04-17T08:41:54.986Z,100916.34
2023-04-17T08:44:21.756Z,100920.13
2023-04-17T08:46:49.745Z,100919.69
2023-04-17T08:49:16.827Z,100926.19
2023-04-17T08:51:43.451Z,100922.97
2023-04-17T08:54:10.149Z,100931.34
2023-04-17T08:56:54.433Z,100924.66
2023-04-17T08:59:22.257Z,100922.06
2023-04-17T09:02:06.782Z,100933.16
2023-04-17T09:04:41.896Z,100934.28
2023-04-17T09:07:13.528Z,100923.88
2023-04-17T09:09:56.550Z,100926.16
2023-04-17T09:12:24.974Z,100930.84
2023-04-17T09:14:52.179Z,100925.16
2023-04-17T09:17:20.308Z,100926.59
2023-04-17T09:20:13.247Z,100933.50
2023-04-17T09:22:41.056Z,100929.25
2023-04-17T09:25:21.436Z,100923.78
2023-04-17T09:27:48.038Z,100931.28
2023-04-17T09:30:15.077Z,100925.78
2023-04-17T09:32:41.796Z,100928.34
2023-04-17T09:35:09.033Z,100931.75
2023-04-17T09:37:55.642Z,100929.50
2023-04-17T09:40:25.102Z,100929.31
2023-04-17T09:42:54.661Z,100934.81
2023-04-17T09:45:22.349Z,100932.06
2023-04-17T09:47:48.938Z,100938.31
2023-04-17T09:50:22.067Z,100933.00
2023-04-17T09:52:52.470Z,100931.09
2023-04-17T09:55:23.693Z,100928.19
2023-04-17T09:57:54.793Z,100936.03
2023-04-17T10:00:23.777Z,100932.22
2023-04-17T10:02:54.143Z,100930.03
2023-04-17T10:05:29.164Z,100933.19
2023-04-17T10:07:56.550Z,100933.47
2023-04-17T10:10:31.350Z,100938.19
2023-04-17T10:13:01.205Z,100937.81
2023-04-17T10:15:29.031Z,100932.88
2023-04-17T10:17:58.738Z,100933.22
2023-04-17T10:20:25.269Z,100942.50
2023-04-17T10:22:56.719Z,100933.19
2023-04-17T10:25:27.955Z,100936.31
2023-04-17T10:27:54.673Z,100931.19
2023-04-17T10:30:26.346Z,100932.34
2023-04-17T10:33:21.894Z,100934.50
2023-04-17T10:35:51.943Z,100934.25
2023-04-17T10:38:39.049Z,100922.03
2023-04-17T10:41:09.376Z,100926.28
2023-04-17T10:43:40.526Z,100919.19
2023-04-17T10:46:14.711Z,100921.84
2023-04-17T10:48:50.602Z,100909.09
2023-04-17T10:51:23.540Z,100909.69
2023-04-17T10:53:51.670Z,100907.50
2023-04-17T10:56:24.313Z,100904.56
2023-04-17T10:59:00.695Z,100897.91
2023-04-17T11:01:49.112Z,100903.25
2023-04-17T11:04:23.572Z,100897.31
2023-04-17T11:06:52.701Z,100884.03
2023-04-17T11:09:27.825Z,100895.50
2023-04-17T11:11:54.848Z,100892.91
2023-04-17T11:14:23.321Z,100893.19
2023-04-17T11:16:51.787Z,100892.50
2023-04-17T11:19:23.185Z,100888.16
2023-04-17T11:21:52.088Z,100884.38
2023-04-17T11:24:29.619Z,100880.16
2023-04-17T11:26:59.813Z,100879.88
2023-04-17T11:29:27.684Z,100875.22
2023-04-17T11:31:56.204Z,100880.19
2023-04-17T11:34:24.888Z,100876.06
2023-04-17T11:36:57.215Z,100872.31
2023-04-17T11:39:25.582Z,100878.94
2023-04-17T11:41:52.770Z,100867.50
2023-04-17T11:44:23.585Z,100879.28
2023-04-17T11:46:51.737Z,100876.97
2023-04-17T11:49:39.027Z,100883.16
2023-04-17T11:52:05.957Z,100878.28
2023-04-17T11:54:37.211Z,100874.03
2023-04-17T11:57:06.104Z,100867.81
2023-04-17T11:59:34.184Z,100866.84
2023-04-17T12:02:01.987Z,100865.50
2023-04-17T12:04:30.105Z,100856.97
2023-04-17T12:06:59.176Z,100864.44
2023-04-17T12:09:31.306Z,100874.94
2023-04-17T12:11:58.624Z,100871.19
2023-04-17T12:14:26.447Z,100874.09
2023-04-17T12:16:53.304Z,100870.09
2023-04-17T12:19:19.880Z,100865.59
2023-04-17T12:21:49.147Z,100874.63
2023-04-17T12:24:18.162Z,100865.84
2023-04-17T12:26:49.323Z,100874.19
2023-04-17T12:29:16.659Z,100864.00
2023-04-17T12:31:44.561Z,100875.59
2023-04-17T12:34:11.309Z,100872.03
2023-04-17T12:36:38.298Z,100871.44
2023-04-17T12:39:04.726Z,100866.78
2023-04-17T12:41:31.829Z,100867.31
2023-04-17T12:44:01.606Z,100869.53
2023-04-17T12:46:28.351Z,100868.72
2023-04-17T12:48:58.367Z,100867.06
2023-04-17T12:51:27.800Z,100870.72
2023-04-17T12:53:55.188Z,100857.94
2023-04-17T12:56:21.688Z,100866.81
2023-04-17T12:58:48.150Z,100861.00
2023-04-17T13:01:14.535Z,100859.53
2023-04-17T13:03:41.410Z,100860.00
2023-04-17T13:06:08.031Z,100859.22
2023-04-17T13:08:34.486Z,100859.19
2023-04-17T13:11:03.523Z,100850.94
2023-04-17T13:13:29.943Z,100850.31
2023-04-17T13:15:56.392Z,100852.50
2023-04-17T13:18:22.855Z,100842.75
2023-04-17T13:20:49.450Z,100855.94
2023-04-17T13:23:15.876Z,100836.28
2023-04-17T13:25:42.357Z,100840.03
2023-04-17T13:28:08.859Z,100837.34
2023-04-17T13:30:37.021Z,100837.69
2023-04-17T13:33:03.833Z,100832.22
2023-04-17T13:35:30.399Z,100828.41
2023-04-17T13:38:00.775Z,100835.63
2023-04-17T13:40:27.370Z,100827.06
2023-04-17T13:42:54.500Z,100822.91
2023-04-17T13:45:21.059Z,100822.13
2023-04-17T13:47:47.701Z,100825.56
2023-04-17T13:50:14.276Z,100810.66
2023-04-17T13:52:40.697Z,100810.66
2023-04-17T13:55:11.667Z,100802.59
2023-04-17T13:57:38.244Z,100811.19
2023-04-17T14:00:05.144Z,100817.78
2023-04-17T14:02:31.875Z,100810.47
2023-04-17T14:04:58.680Z,100804.47
2023-04-17T14:07:27.263Z,100806.47
2023-04-17T14:09:53.726Z,100798.81
2023-04-17T14:12:21.680Z,100798.63
2023-04-17T14:14:48.369Z,100801.38
2023-04-17T14:17:14.991Z,100795.28
2023-04-17T14:19:41.519Z,100785.81
2023-04-17T14:22:08.150Z,100787.44
2023-04-17T14:24:34.540Z,100781.28
2023-04-17T14:27:02.111Z,100781.81
2023-04-17T14:29:31.598Z,100775.03
2023-04-17T14:31:58.141Z,100774.44
2023-04-17T14:34:24.844Z,100772.66
2023-04-17T14:36:51.702Z,100769.09
2023-04-17T14:39:19.612Z,100765.50
2023-04-17T14:41:46.189Z,100772.69
2023-04-17T14:44:13.101Z,100769.44
2023-04-17T14:46:39.993Z,100767.00
2023-04-17T14:49:06.560Z,100761.75
2023-04-17T14:51:33.009Z,100753.16
2023-04-17T14:54:02.499Z,100752.44
2023-04-17T14:56:28.953Z,100758.41
2023-04-17T14:58:55.406Z,100760.66
2023-04-17T15:01:21.938Z,100766.47
2023-04-17T15:03:49.176Z,100759.03
2023-04-17T15:06:16.609Z,100759.31
2023-04-17T15:08:43.245Z,100762.56
2023-04-17T15:11:09.759Z,100750.16
2023-04-17T15:13:36.304Z,100756.84
2023-04-17T15:16:03.393Z,100760.13
2023-04-17T15:18:29.885Z,100758.84
2023-04-17T15:20:56.402Z,100748.03
2023-04-17T15:23:23.021Z,100746.22
2023-04-17T15:25:49.500Z,100746.28
2023-04-17T15:28:16.008Z,100747.66
2023-04-17T15:30:42.662Z,100738.97
2023-04-17T15:33:10.227Z,100744.34
2023-04-17T15:35:37.387Z,100735.19
2023-04-17T15:38:05.180Z,100740.94
2023-04-17T15:40:31.654Z,100739.88
2023-04-17T15:42:58.244Z,100735.13
2023-04-17T15:45:25.779Z,100736.09
2023-04-17T15:47:53.523Z,100720.53
2023-04-17T15:50:21.070Z,100737.28
2023-04-17T15:52:47.981Z,100730.91
2023-04-17T15:55:14.992Z,100732.78
2023-04-17T15:57:43.074Z,100728.41
2023-04-17T16:00:10.431Z,100723.91
2023-04-17T16:02:37.183Z,100731.00
2023-04-17T16:05:04.257Z,100723.72
2023-04-17T16:07:31.545Z,100730.81
2023-04-17T16:09:58.271Z,100728.66
2023-04-17T16:12:24.707Z,100721.22
2023-04-17T16:14:51.244Z,100723.59
2023-04-17T16:17:17.801Z,100721.84
2023-04-17T16:19:44.197Z,100725.00
2023-04-17T16:22:10.631Z,100723.31
2023-04-17T16:24:37.044Z,100717.09
2023-04-17T16:27:04.111Z,100718.88
2023-04-17T16:29:30.664Z,100723.97
2023-04-17T16:31:57.345Z,100718.28
2023-04-17T16:34:23.800Z,100709.41
2023-04-17T16:36:50.261Z,100721.84
2023-04-17T16:39:16.824Z,100719.84
2023-04-17T16:41:43.672Z,100715.25
2023-04-17T16:44:10.398Z,100723.06
2023-04-17T16:46:52.149Z,100727.16
2023-04-17T16:49:23.617Z,100723.50
2023-04-17T16:51:50.356Z,100728.53
2023-04-17T16:54:18.751Z,100730.84
2023-04-17T16:56:46.754Z,100722.03
2023-04-17T16:59:13.683Z,100728.16
2023-04-17T17:01:40.434Z,100734.81
2023-04-17T17:04:07.202Z,100720.91
2023-04-17T17:06:33.946Z,100721.09
2023-04-17T17:09:00.724Z,100728.47
2023-04-17T17:11:27.244Z,100719.78
2023-04-17T17:13:53.819Z,100732.63
2023-04-17T17:16:23.270Z,100721.22
2023-04-17T17:18:49.836Z,100715.19
2023-04-17T17:21:16.520Z,100722.16
2023-04-17T17:23:43.035Z,100724.59
2023-04-17T17:26:09.670Z,100733.94
2023-04-17T17:28:36.566Z,100734.44
2023-04-17T17:31:07.431Z,100739.28
2023-04-17T17:33:35.157Z,100740.53
2023-04-17T17:36:02.881Z,100737.34
2023-04-17T17:38:30.806Z,100739.56
2023-04-17T17:40:57.484Z,100735.66
2023-04-17T17:43:24.519Z,100734.59
2023-04-17T17:45:53.519Z,100739.81
2023-04-17T17:48:20.513Z,100743.19
2023-04-17T17:50:47.971Z,100745.00
2023-04-17T17:53:17.525Z,100739.72
2023-04-17T17:55:53.854Z,100747.97
2023-04-17T17:58:21.761Z,100748.66
2023-04-17T18:00:49.586Z,100743.53
2023-04-17T18:03:17.265Z,100748.81
2023-04-17T18:05:45.002Z,100748.75
2023-04-17T18:08:11.632Z,100746.06
2023-04-17T18:10:38.948Z,100752.03
2023-04-17T18:13:06.099Z,100745.78
2023-04-17T18:15:32.802Z,100755.41
2023-04-17T18:17:59.510Z,100765.75
2023-04-17T18:20:26.189Z,100762.91
2023-04-17T18:22:52.779Z,100760.91
2023-04-17T18:25:19.462Z,100768.56
2023-04-17T18:27:45.963Z,100768.06
2023-04-17T18:30:13.016Z,100775.72
2023-04-17T18:32:39.554Z,100771.03
2023-04-17T18:35:06.615Z,100775.94
2023-04-17T18:37:33.237Z,100780.19
2023-04-17T18:39:59.792Z,100784.44
2023-04-17T18:42:26.248Z,100782.59
2023-04-17T18:44:52.710Z,100786.84
2023-04-17T18:47:19.231Z,100799.16
2023-04-17T18:49:45.783Z,100789.09
2023-04-17T18:52:12.356Z,100798.53
2023-04-17T18:54:38.918Z,100802.78
2023-04-17T18:57:05.398Z,100798.03
2023-04-17T18:59:31.969Z,100802.16
2023-04-17T19:01:58.513Z,100809.75
2023-04-17T19:04:25.069Z,100806.00
2023-04-17T19:06:51.628Z,100813.59
2023-04-17T19:09:18.179Z,100805.31
2023-04-17T19:11:44.751Z,100816.44
2023-04-17T19:14:11.538Z,100822.28
2023-04-17T19:16:38.442Z,100819.28
2023-04-17T19:19:05.730Z,100822.38
2023-04-17T19:21:32.851Z,100816.69
2023-04-17T19:23:59.531Z,100822.38
2023-04-17T19:26:26.095Z,100831.63
2023-04-17T19:28:52.674Z,100830.19
2023-04-17T19:31:19.284Z,100830.59
2023-04-17T19:33:45.796Z,100837.97
2023-04-17T19:36:12.270Z,100829.44
2023-04-17T19:38:38.824Z,100837.81
2023-04-17T19:41:23.550Z,100839.31
2023-04-17T19:43:51.495Z,100837.63
2023-04-17T19:46:19.437Z,100842.34
2023-04-17T19:48:47.048Z,100843.53
2023-04-17T19:51:14.876Z,100845.69
2023-04-17T19:53:43.823Z,100839.94
2023-04-17T19:56:10.911Z,100847.31
2023-04-17T19:58:38.413Z,100840.72
2023-04-17T20:01:05.184Z,100841.16
2023-04-17T20:03:32.691Z,100845.06
2023-04-17T20:05:59.821Z,100846.25
2023-04-17T20:08:26.700Z,100845.75
2023-04-17T20:10:53.774Z,100848.75
2023-04-17T20:13:20.368Z,100850.88
2023-04-17T20:15:46.992Z,100853.00
2023-04-17T20:18:13.665Z,100847.19
2023-04-17T20:20:40.379Z,100845.88
2023-04-17T20:23:07.072Z,100855.00
2023-04-17T20:25:33.599Z,100861.50
2023-04-17T20:28:02.838Z,100858.41
2023-04-17T20:30:29.634Z,100860.41
2023-04-17T20:32:56.696Z,100857.22
2023-04-17T20:35:24.703Z,100862.84
2023-04-17T20:37:52.147Z,100860.44
2023-04-17T20:40:19.698Z,100858.94
2023-04-17T20:42:47.470Z,100855.75
2023-04-17T20:45:14.310Z,100856.00
2023-04-17T20:47:56.054Z,100854.56
2023-04-17T20:50:23.705Z,100859.25
2023-04-17T20:52:50.388Z,100857.00
2023-04-17T20:55:18.763Z,100853.81
2023-04-17T20:57:45.983Z,100862.03
2023-04-17T21:00:13.037Z,100859.69
2023-04-17T21:02:39.879Z,100864.38
2023-04-17T21:05:07.713Z,100864.63
2023-04-17T21:07:34.720Z,100863.94
2023-04-17T21:10:02.016Z,100865.09
2023-04-17T21:12:28.771Z,100866.22
2023-04-17T21:14:55.274Z,100872.53
2023-04-17T21:17:22.800Z,100865.75
2023-04-17T21:19:49.485Z,100864.19
2023-04-17T21:22:16.176Z,100870.63
2023-04-17T21:24:42.868Z,100865.47
2023-04-17T21:27:10.248Z,100870.13
2023-04-17T21:29:36.896Z,100864.22
2023-04-17T21:32:03.877Z,100865.28
2023-04-17T21:34:30.556Z,100869.91
2023-04-17T21:36:59.339Z,100875.41
2023-04-17T21:39:25.962Z,100880.81
2023-04-17T21:41:52.501Z,100876.66
2023-04-17T21:44:19.134Z,100868.09
2023-04-17T21:46:46.094Z,100885.03
2023-04-17T21:49:13.014Z,100886.09
2023-04-17T21:51:39.848Z,100883.63
2023-04-17T21:54:06.494Z,100882.88
2023-04-17T21:56:33.093Z,100885.69
2023-04-17T21:58:59.638Z,100880.59
2023-04-17T22:01:26.286Z,100886.94
2023-04-17T22:03:53.120Z,100887.16
2023-04-17T22:06:19.654Z,100895.19
2023-04-17T22:08:46.353Z,100888.31
2023-04-17T22:11:12.914Z,100882.41
2023-04-17T22:13:39.484Z,100890.50
2023-04-17T22:16:06.328Z,100892.41
2023-04-17T22:18:32.893Z,100893.47
2023-04-17T22:20:59.428Z,100890.19
2023-04-17T22:23:26.026Z,100892.06
2023-04-17T22:25:52.500Z,100896.63
2023-04-17T22:28:19.197Z,100897.66
2023-04-17T22:30:49.268Z,100896.88
2023-04-17T22:33:15.780Z,100896.94
2023-04-17T22:35:42.334Z,100896.13
2023-04-17T22:38:08.877Z,100903.22
2023-04-17T22:40:35.287Z,100903.34
2023-04-17T22:43:01.606Z,100904.25
2023-04-17T22:45:27.934Z,100902.59
2023-04-17T22:47:54.287Z,100904.44
2023-04-17T22:50:21.751Z,100903.66
2023-04-17T22:52:48.115Z,100897.56
2023-04-17T22:55:14.643Z,100893.28
2023-04-17T22:57:41.016Z,100901.31
2023-04-17T23:00:11.423Z,100902.28
2023-04-17T23:02:37.920Z,100898.06
2023-04-17T23:05:05.331Z,100903.41
2023-04-17T23:07:32.379Z,100900.91
2023-04-17T23:09:58.788Z,100894.81
2023-04-17T23:12:25.184Z,100894.88
2023-04-17T23:14:51.490Z,100889.75
2023-04-17T23:17:17.877Z,100895.13
2023-04-17T23:19:44.192Z,100896.13
2023-04-17T23:22:10.728Z,100891.91
2023-04-17T23:24:37.276Z,100889.44
2023-04-17T23:27:03.728Z,100891.28
2023-04-17T23:29:30.242Z,100890.47
2023-04-17T23:31:56.536Z,100893.16
2023-04-17T23:34:22.902Z,100892.44
2023-04-17T23:36:49.208Z,100889.91
2023-04-17T23:39:15.583Z,100898.78
2023-04-17T23:41:42.739Z,100898.00
2023-04-17T23:44:09.686Z,100893.66
2023-04-17T23:46:36.859Z,100895.38
2023-04-17T23:49:03.705Z,100890.94
2023-04-17T23:51:30.325Z,100897.03
2023-04-17T23:53:59.289Z,100900.53
2023-04-17T23:56:26.009Z,100893.41
2023-04-17T23:58:52.643Z,100888.88
